Aérodrome :
LOGIN :

S'inscrire | Disclaimer

   EN    FR    IT 

 










Légende :    VFR   VFR Marginal   IFR   IFR Intensif   IFR Très Intensif
Visi : 
Plafond : 
>= 8 km
>= 3000ft
5 à 8 km
1000 à 3000 ft
1500m à 5 km
500 à 1000 ft
800 à 1500m
200 à 500 ft
< 800m
< 200 ft
Symboles :   Orages  Brouillard  Fortes neiges  Fortes précipitations  Vent > 20 kt
SIGMETs :   Divers  Orages  Givrage  Turbulence  Onde Orograph.  Cendres Volcan.







- Altitude de l'aérodrome : 1300 ft
- Code IATA : LIG
- Voir les cartes d'approche


LFBL - Limoges

DERNIER METAR :
  • 161100Z AUTO 16008KT 120V180 CAVOK 12/M04 Q1028 NOSIG

METARs EXPIRÉS :
  • 161030Z AUTO 13007KT CAVOK 11/M05 Q1028 NOSIG
  • 161000Z AUTO 14007KT CAVOK 10/M05 Q1028 NOSIG
  • 160930Z AUTO 09004KT 060V120 CAVOK 09/M04 Q1028 NOSIG
  • 160900Z AUTO VRB03KT CAVOK 07/M03 Q1027 NOSIG
  • 160830Z AUTO 09004KT CAVOK 06/M04 Q1028 NOSIG
  • 160800Z AUTO 06003KT CAVOK 05/M05 Q1028 NOSIG

TAF TAF LFBL
Valide du 16 à 06h jusqu'au 17 à 06h UTC


160500Z 1606/1706 VRB03KT CAVOK
BECMG 1607/1609 14006KT
TEMPO 1618/1706 VRB03KT
ATIS : +33 5 55 48 40 37
Pas de NOTAMs connus pour ce terrain.



MET'MAP, la Météo Aéronautique d'un coup d'oeil ! - Copyright ORBIFLY Décembre 2007 - Disclaimer

ORBIFLY MET'MAP TEAM :

Programmation & Développement : Alexandra Zaïnal
Conception & Développement : Baudouin d'Aumeries
Co-Programmation & Développement : Marc-Olivier Méhu
Soutien technique & logistique : Manuel Goepfert

Contact : metmap@orbifly.com




SOURCES & CREDITS :

   NOAA